Time;durP1;ratioP1;P1;durP2;ratioP2;P2;SDS_P1;SDS_P2;PMS_P1;PMS_P2;Temp;Humidity;BMP_temperature;BMP_pressure;BME280_temperature;BME280_humidity;BME280_pressure;Samples;Min_cycle;Max_cycle;Signal;HPM_P1;HPM_P2
2022/06/06 00:01:22;;;;;;;20.05;6.53;;;27.40;62.90;;;;;;5134103;27;20045;-69
2022/06/06 00:04:27;;;;;;;23.27;6.30;;;27.40;62.90;;;;;;5133237;27;20042;-69
2022/06/06 00:07:31;;;;;;;18.48;7.65;;;27.50;62.90;;;;;;5133426;27;20050;-69
2022/06/06 00:10:35;;;;;;;17.52;6.30;;;27.40;63.30;;;;;;5131961;27;20046;-69
2022/06/06 00:13:42;;;;;;;24.23;6.22;;;27.50;63.50;;;;;;5133594;27;20038;-69
2022/06/06 00:16:46;;;;;;;18.05;5.72;;;27.50;63.70;;;;;;5133538;27;20054;-69
2022/06/06 00:19:50;;;;;;;21.48;5.75;;;27.50;64.10;;;;;;5133466;27;20042;-69
2022/06/06 00:22:54;;;;;;;21.23;6.22;;;27.40;64.00;;;;;;5133534;27;20038;-69
2022/06/06 00:25:58;;;;;;;26.55;6.90;;;27.40;64.30;;;;;;5133407;27;20063;-69
2022/06/06 00:29:05;;;;;;;18.42;6.70;;;27.40;64.20;;;;;;5133434;27;20042;-68
2022/06/06 00:35:33;;;;;;;17.23;6.57;;;27.40;64.50;;;;;;5133135;27;20038;-69
2022/06/06 00:38:36;;;;;;;21.30;7.03;;;27.40;64.70;;;;;;5133076;27;20045;-70
2022/06/06 00:41:44;;;;;;;23.38;7.40;;;27.30;65.10;;;;;;5133033;27;20058;-69
2022/06/06 00:44:48;;;;;;;38.22;9.18;;;27.30;65.70;;;;;;5133032;27;20050;-69
2022/06/06 00:48:16;;;;;;;21.88;7.35;;;27.30;66.80;;;;;;5132522;27;20065;-69
2022/06/06 00:51:20;;;;;;;22.83;8.35;;;27.20;67.80;;;;;;5120191;27;20050;-70
2022/06/06 00:54:25;;;;;;;19.70;6.88;;;27.30;68.20;;;;;;5133035;27;20042;-69
2022/06/06 00:57:32;;;;;;;22.85;7.20;;;27.30;68.70;;;;;;5132525;27;20516;-71
2022/06/06 01:00:38;;;;;;;21.80;7.63;;;27.30;68.70;;;;;;5132911;27;20043;-70
2022/06/06 01:03:42;;;;;;;17.52;7.60;;;27.20;68.80;;;;;;5132227;27;20394;-70
2022/06/06 01:06:47;;;;;;;26.52;6.75;;;27.20;68.10;;;;;;5132493;27;20057;-69
2022/06/06 01:09:51;;;;;;;21.08;8.32;;;27.10;67.70;;;;;;5132796;27;20054;-70
2022/06/06 01:12:56;;;;;;;28.85;7.82;;;27.10;67.60;;;;;;5119865;27;20406;-69
2022/06/06 01:16:12;;;;;;;19.88;8.20;;;26.80;68.30;;;;;;5132172;27;20053;-68
2022/06/06 01:19:31;;;;;;;20.58;8.43;;;26.70;68.50;;;;;;5132471;27;20050;-69
2022/06/06 01:23:08;;;;;;;31.33;8.57;;;26.70;68.40;;;;;;5132629;27;20054;-70
2022/06/06 01:26:54;;;;;;;17.35;7.82;;;26.60;68.70;;;;;;5131431;27;20410;-69
2022/06/06 01:30:07;;;;;;;25.83;7.60;;;26.50;68.90;;;;;;5132549;27;20054;-69
2022/06/06 01:33:14;;;;;;;27.15;7.95;;;26.50;69.40;;;;;;5132486;27;20047;-69
2022/06/06 01:36:18;;;;;;;19.30;7.10;;;26.50;69.50;;;;;;5132188;27;20590;-69
2022/06/06 01:39:25;;;;;;;15.88;6.65;;;26.50;69.80;;;;;;5131412;27;20050;-69
2022/06/06 01:43:08;;;;;;;22.88;7.75;;;26.60;70.20;;;;;;5132517;27;20042;-70
2022/06/06 01:46:22;;;;;;;21.52;8.02;;;26.60;70.00;;;;;;5131962;28;20080;-69
2022/06/06 01:49:27;;;;;;;32.75;9.15;;;26.50;69.90;;;;;;5131231;28;20038;-73
2022/06/06 01:52:49;;;;;;;27.70;12.68;;;26.50;69.70;;;;;;5132003;28;20053;-69
2022/06/06 01:55:53;;;;;;;25.80;11.52;;;25.80;70.50;;;;;;5132041;28;20046;-69
2022/06/06 01:58:58;;;;;;;27.23;10.48;;;25.40;71.50;;;;;;5131178;28;20046;-70
2022/06/06 02:02:02;;;;;;;25.38;8.82;;;25.20;72.30;;;;;;5132335;28;20050;-69
2022/06/06 02:05:07;;;;;;;25.23;8.27;;;25.10;72.90;;;;;;5132146;28;20046;-69
2022/06/06 02:08:11;;;;;;;21.52;8.48;;;25.20;73.10;;;;;;5131630;28;20054;-68
2022/06/06 02:11:15;;;;;;;24.13;7.50;;;25.30;73.20;;;;;;5131924;28;20389;-69
2022/06/06 02:14:18;;;;;;;17.13;7.18;;;25.30;73.60;;;;;;5131888;28;20044;-69
2022/06/06 02:17:23;;;;;;;25.85;7.43;;;25.30;74.00;;;;;;5131840;28;20088;-68
2022/06/06 02:20:29;;;;;;;25.75;7.72;;;25.40;74.00;;;;;;5132144;28;20046;-69
2022/06/06 02:23:33;;;;;;;26.17;7.88;;;25.50;73.90;;;;;;5132395;28;20042;-69
2022/06/06 02:26:37;;;;;;;28.05;8.13;;;25.60;73.50;;;;;;5131522;28;20046;-69
2022/06/06 02:29:41;;;;;;;33.63;10.15;;;25.60;73.40;;;;;;5130910;28;20525;-69
2022/06/06 02:32:45;;;;;;;26.70;9.55;;;25.60;73.00;;;;;;5132390;27;20097;-69
2022/06/06 02:35:49;;;;;;;22.05;10.48;;;25.50;73.40;;;;;;5135874;27;20050;-68
2022/06/06 02:38:53;;;;;;;30.88;11.63;;;25.40;73.60;;;;;;5138092;27;20192;-70
2022/06/06 02:41:57;;;;;;;33.92;8.10;;;25.50;73.50;;;;;;5135659;27;20046;-69
2022/06/06 02:45:02;;;;;;;23.33;7.68;;;25.60;73.30;;;;;;5135667;27;20034;-69
2022/06/06 02:48:08;;;;;;;21.20;7.65;;;25.50;73.30;;;;;;5134977;27;20074;-69
2022/06/06 02:51:11;;;;;;;25.75;7.00;;;25.50;73.20;;;;;;5135368;27;20034;-70
2022/06/06 02:54:15;;;;;;;18.77;7.07;;;25.50;73.10;;;;;;5135495;27;20042;-69
2022/06/06 02:57:19;;;;;;;20.05;7.50;;;25.40;73.10;;;;;;5134965;27;20058;-69
2022/06/06 03:00:27;;;;;;;20.75;7.03;;;25.40;73.20;;;;;;5135358;27;20046;-69
2022/06/06 03:03:32;;;;;;;15.95;7.30;;;25.30;73.30;;;;;;5134998;27;20050;-69
2022/06/06 03:06:55;;;;;;;20.90;6.88;;;25.30;73.40;;;;;;5135064;27;20043;-70
2022/06/06 03:10:26;;;;;;;21.13;7.72;;;25.30;73.40;;;;;;5134807;27;20042;-70
2022/06/06 03:14:00;;;;;;;20.33;7.15;;;25.20;73.90;;;;;;5134916;27;20050;-69
2022/06/06 03:20:54;;;;;;;18.70;7.10;;;25.30;73.10;;;;;;5134884;27;20062;-69
2022/06/06 03:24:31;;;;;;;24.15;6.47;;;25.20;73.00;;;;;;5135050;27;20050;-69
2022/06/06 03:28:03;;;;;;;17.05;6.80;;;25.30;73.10;;;;;;5121923;27;20043;-70
2022/06/06 03:31:19;;;;;;;29.90;8.68;;;25.30;73.10;;;;;;5134937;27;20043;-69
2022/06/06 03:34:50;;;;;;;15.88;6.57;;;25.00;73.80;;;;;;5133908;27;20520;-69
2022/06/06 03:38:00;;;;;;;32.42;8.60;;;24.80;74.50;;;;;;5134878;27;20042;-70
2022/06/06 03:41:22;;;;;;;27.13;7.47;;;24.60;74.50;;;;;;5134581;27;20042;-69
2022/06/06 03:44:50;;;;;;;24.30;7.57;;;24.30;75.70;;;;;;5134588;27;20046;-69
2022/06/06 03:48:01;;;;;;;24.13;6.70;;;24.20;76.00;;;;;;5134705;27;20058;-70
2022/06/06 03:51:31;;;;;;;28.38;6.82;;;24.10;76.20;;;;;;5134452;27;20046;-70
2022/06/06 03:55:11;;;;;;;20.08;6.40;;;24.10;76.70;;;;;;5134143;27;20405;-69
2022/06/06 03:58:21;;;;;;;27.65;7.13;;;24.20;76.80;;;;;;5133536;27;20394;-69
2022/06/06 04:01:26;;;;;;;23.75;6.30;;;24.30;76.90;;;;;;5121926;27;20050;-69
2022/06/06 04:04:31;;;;;;;18.27;7.20;;;24.20;75.70;;;;;;5133935;27;20051;-68
2022/06/06 04:07:35;;;;;;;21.35;7.82;;;24.00;75.80;;;;;;5133811;27;20497;-70
2022/06/06 04:11:05;;;;;;;25.63;8.35;;;24.00;75.80;;;;;;5134242;27;20039;-69
2022/06/06 04:14:27;;;;;;;19.63;9.00;;;24.10;75.10;;;;;;5134194;27;20042;-69
2022/06/06 04:17:43;;;;;;;32.15;8.48;;;24.40;74.60;;;;;;5132894;27;20042;-69
2022/06/06 04:21:03;;;;;;;21.58;9.48;;;24.40;74.40;;;;;;5133578;27;20038;-69
2022/06/06 04:24:39;;;;;;;30.38;10.55;;;24.50;74.50;;;;;;5133446;27;20042;-68
2022/06/06 04:28:10;;;;;;;36.78;10.77;;;24.60;74.50;;;;;;5133162;27;20050;-70
2022/06/06 04:31:23;;;;;;;22.45;9.85;;;24.40;75.60;;;;;;5133668;27;20038;-69
2022/06/06 04:34:44;;;;;;;29.77;10.48;;;24.50;75.60;;;;;;5133135;27;20058;-69
2022/06/06 04:38:01;;;;;;;26.92;8.65;;;24.70;75.30;;;;;;5132414;27;20054;-69
2022/06/06 04:41:31;;;;;;;27.23;8.43;;;24.90;75.10;;;;;;5120649;27;20045;-69
2022/06/06 04:45:04;;;;;;;33.03;8.65;;;25.10;75.00;;;;;;5132400;27;20054;-69
2022/06/06 04:48:09;;;;;;;27.33;9.57;;;25.30;74.60;;;;;;5132764;27;20050;-69
2022/06/06 04:51:18;;;;;;;29.23;7.90;;;25.50;74.70;;;;;;5132681;27;20394;-69
2022/06/06 04:54:24;;;;;;;31.45;8.55;;;25.70;74.10;;;;;;5132235;27;20050;-69
2022/06/06 04:57:30;;;;;;;33.30;8.40;;;25.80;73.40;;;;;;5132335;27;20057;-70
2022/06/06 05:00:36;;;;;;;33.58;8.65;;;25.90;73.00;;;;;;5132825;27;20042;-69
2022/06/06 05:03:40;;;;;;;31.88;8.45;;;26.00;72.80;;;;;;5132532;27;20038;-69
2022/06/06 05:06:53;;;;;;;27.08;7.40;;;26.30;72.20;;;;;;5132186;27;20046;-69
2022/06/06 05:10:16;;;;;;;34.42;8.38;;;26.60;71.20;;;;;;5132513;27;20046;-69
2022/06/06 05:13:33;;;;;;;25.92;6.82;;;26.90;70.40;;;;;;5132739;27;20395;-69
2022/06/06 05:16:58;;;;;;;35.20;8.35;;;27.10;70.30;;;;;;5131573;27;20053;-68
2022/06/06 05:20:25;;;;;;;32.35;6.75;;;27.40;70.20;;;;;;5132631;27;20393;-69
2022/06/06 05:23:35;;;;;;;25.38;7.28;;;27.60;69.60;;;;;;5123627;27;20042;-70
2022/06/06 05:27:06;;;;;;;28.17;6.88;;;27.50;70.10;;;;;;5131199;27;20046;-68
2022/06/06 05:30:26;;;;;;;31.10;7.57;;;27.70;70.30;;;;;;5119943;27;20497;-70
2022/06/06 05:33:37;;;;;;;33.22;6.90;;;27.90;70.10;;;;;;5132578;27;20054;-71
2022/06/06 05:36:50;;;;;;;33.88;7.97;;;28.10;69.00;;;;;;5131973;27;20192;-70
2022/06/06 05:40:15;;;;;;;29.45;7.35;;;28.30;69.80;;;;;;5131604;27;20042;-71
2022/06/06 05:43:41;;;;;;;35.88;8.63;;;28.60;69.20;;;;;;5119650;27;20042;-72
2022/06/06 05:46:51;;;;;;;29.48;7.50;;;28.80;69.10;;;;;;5131863;28;20497;-70
2022/06/06 05:50:11;;;;;;;30.67;7.73;;;29.00;68.50;;;;;;5132233;28;20046;-70
2022/06/06 05:53:28;;;;;;;33.87;8.73;;;29.00;67.70;;;;;;5131369;28;20046;-68
2022/06/06 05:56:47;;;;;;;36.58;8.68;;;29.20;67.90;;;;;;5131562;28;20054;-69
2022/06/06 06:00:04;;;;;;;28.55;7.25;;;29.30;67.60;;;;;;5132321;28;20501;-68
2022/06/06 06:03:26;;;;;;;26.10;7.60;;;29.40;66.90;;;;;;5131911;28;20046;-69
2022/06/06 06:06:54;;;;;;;32.75;6.95;;;29.60;66.30;;;;;;5132076;27;20050;-68
2022/06/06 06:10:14;;;;;;;24.17;7.20;;;29.70;66.50;;;;;;5121051;27;20054;-68
2022/06/06 06:13:18;;;;;;;;;;;29.60;65.30;;;;;;5136312;27;20050;-67
2022/06/06 06:16:32;;;;;;;36.45;8.02;;;29.50;65.20;;;;;;5136038;27;20262;-70
2022/06/06 06:19:49;;;;;;;23.70;6.85;;;29.70;65.40;;;;;;5134901;27;20038;-75
2022/06/06 06:22:59;;;;;;;52.92;9.52;;;29.90;64.90;;;;;;5135686;27;20070;-73
2022/06/06 06:26:05;;;;;;;31.55;7.88;;;30.30;65.40;;;;;;5135715;27;20039;-72
2022/06/06 06:29:10;;;;;;;47.80;8.63;;;30.50;64.00;;;;;;5135831;27;20054;-71
2022/06/06 06:32:33;;;;;;;42.35;8.77;;;30.80;64.10;;;;;;5135742;27;20171;-74
2022/06/06 06:36:06;;;;;;;52.00;7.65;;;31.10;64.00;;;;;;5134475;27;20047;-72
2022/06/06 06:39:42;;;;;;;28.52;8.23;;;31.30;63.40;;;;;;5135192;27;20046;-72
2022/06/06 06:43:35;;;;;;;30.77;7.80;;;31.50;62.90;;;;;;5135563;27;20042;-73
2022/06/06 06:46:48;;;;;;;37.55;6.43;;;31.70;62.30;;;;;;5135202;27;20050;-72
2022/06/06 06:50:01;;;;;;;27.77;7.13;;;31.70;61.20;;;;;;5134750;27;20054;-73
2022/06/06 06:53:27;;;;;;;23.95;6.60;;;31.80;61.30;;;;;;5122462;27;20505;-75
2022/06/06 06:56:53;;;;;;;22.23;6.45;;;32.00;60.90;;;;;;5135107;27;20054;-73
2022/06/06 07:00:04;;;;;;;25.33;6.47;;;32.30;60.30;;;;;;5134984;27;20050;-72
2022/06/06 07:10:51;;;;;;;26.83;6.90;;;32.50;59.10;;;;;;5134916;27;20046;-74
2022/06/06 07:14:16;;;;;;;13.27;4.65;;;32.50;58.60;;;;;;5134630;27;20038;-74
2022/06/06 07:17:24;;;;;;;15.82;4.47;;;32.50;56.00;;;;;;5134752;27;20046;-73
2022/06/06 07:20:29;;;;;;;16.60;4.40;;;32.40;55.40;;;;;;5134489;27;20046;-76
2022/06/06 07:23:38;;;;;;;11.32;3.80;;;32.40;54.50;;;;;;5134545;27;20042;-76
2022/06/06 07:26:44;;;;;;;15.82;3.20;;;32.30;53.40;;;;;;5134147;27;20038;-75
2022/06/06 07:29:48;;;;;;;17.13;4.40;;;32.30;52.50;;;;;;5134388;27;20046;-73
2022/06/06 07:33:02;;;;;;;22.90;3.88;;;32.20;52.50;;;;;;5134591;27;20062;-75
2022/06/06 07:36:29;;;;;;;19.35;4.93;;;32.40;53.60;;;;;;5134349;27;20046;-72
2022/06/06 07:39:50;;;;;;;24.25;4.63;;;32.60;53.10;;;;;;5134527;27;20046;-72
2022/06/06 07:43:14;;;;;;;;;;;32.70;52.20;;;;;;5134102;27;20046;-76
2022/06/06 07:46:39;;;;;;;13.68;3.53;;;32.90;52.30;;;;;;5133562;27;19931;-75
2022/06/06 07:50:03;;;;;;;16.40;4.25;;;33.30;52.00;;;;;;5134210;27;20080;-75
2022/06/06 07:53:26;;;;;;;25.30;4.50;;;33.60;51.40;;;;;;5134091;27;20050;-78
2022/06/06 07:56:56;;;;;;;23.67;4.53;;;33.80;51.20;;;;;;5133638;27;20054;-77
2022/06/06 08:00:22;;;;;;;23.15;5.00;;;34.00;51.00;;;;;;5134163;27;20061;-74
2022/06/06 08:03:43;;;;;;;29.77;4.85;;;34.30;51.10;;;;;;5134301;27;20054;-78
2022/06/06 08:07:13;;;;;;;12.67;4.47;;;34.40;50.60;;;;;;5134073;27;20046;-81
2022/06/06 08:10:24;;;;;;;29.15;5.38;;;34.50;50.00;;;;;;5134163;27;20469;-74
2022/06/06 08:14:10;;;;;;;20.92;4.18;;;34.60;50.00;;;;;;5134119;27;20038;-81
2022/06/06 08:17:22;;;;;;;19.77;4.35;;;34.70;50.80;;;;;;5133776;27;20038;-83
2022/06/06 08:20:30;;;;;;;27.55;4.93;;;34.80;51.30;;;;;;5133371;27;20497;-75
2022/06/06 08:23:37;;;;;;;19.67;5.53;;;34.90;52.10;;;;;;5132779;27;20505;-78
2022/06/06 08:26:45;;;;;;;21.08;4.45;;;35.00;52.30;;;;;;5134073;27;20067;-76
2022/06/06 08:29:50;;;;;;;13.23;4.90;;;35.10;52.70;;;;;;5132988;27;20062;-81
2022/06/06 08:32:54;;;;;;;22.52;5.53;;;35.20;52.50;;;;;;5133975;27;20049;-78
2022/06/06 08:36:30;;;;;;;15.88;4.07;;;35.30;52.50;;;;;;5132818;27;20046;-80
2022/06/06 08:39:52;;;;;;;13.50;4.68;;;35.40;52.10;;;;;;5133213;27;20497;-77
2022/06/06 08:43:38;;;;;;;16.15;4.63;;;35.40;51.90;;;;;;5133165;27;20057;-75
2022/06/06 08:46:47;;;;;;;14.52;4.43;;;35.50;51.90;;;;;;5091560;27;20522;-77
2022/06/06 08:54:00;;;;;;;15.57;4.15;;;35.60;51.90;;;;;;5132674;27;20058;-81
2022/06/06 08:57:45;;;;;;;17.10;5.57;;;35.60;52.10;;;;;;5132577;27;20459;-77
2022/06/06 09:00:57;;;;;;;17.65;4.35;;;35.50;52.40;;;;;;5132839;27;20034;-74
2022/06/06 09:04:38;;;;;;;12.98;4.07;;;35.30;52.10;;;;;;5132182;27;20046;-81
2022/06/06 09:08:04;;;;;;;12.10;4.03;;;35.30;52.60;;;;;;5132656;27;20054;-75
2022/06/06 09:11:39;;;;;;;15.70;3.88;;;35.40;54.00;;;;;;5132562;27;20390;-76
2022/06/06 09:15:11;;;;;;;14.68;4.13;;;35.40;52.80;;;;;;5132353;27;20042;-79
2022/06/06 09:18:40;;;;;;;17.70;4.45;;;35.40;52.80;;;;;;5131640;27;20058;-80
2022/06/06 09:21:54;;;;;;;15.30;3.38;;;35.50;53.00;;;;;;5131857;27;20042;-77
2022/06/06 09:25:49;;;;;;;12.63;3.67;;;35.40;52.50;;;;;;5132186;27;20042;-82
2022/06/06 09:29:30;;;;;;;8.75;3.22;;;35.40;51.50;;;;;;5120297;27;20046;-82
2022/06/06 09:32:53;;;;;;;11.25;3.20;;;35.50;52.90;;;;;;5133491;27;20039;-82
2022/06/06 09:36:18;;;;;;;13.85;3.08;;;35.60;49.60;;;;;;5132996;27;20046;-85
2022/06/06 09:39:40;;;;;;;17.10;2.97;;;35.60;48.20;;;;;;5131870;27;20425;-81
2022/06/06 09:43:03;;;;;;;9.02;3.28;;;35.60;48.20;;;;;;5132550;27;20042;-82
2022/06/06 09:46:35;;;;;;;17.08;3.40;;;35.70;47.20;;;;;;5132850;27;20047;-86
2022/06/06 09:50:00;;;;;;;11.15;2.90;;;35.70;47.80;;;;;;5131160;28;20050;-81
2022/06/06 09:53:14;;;;;;;10.65;3.13;;;35.70;50.10;;;;;;5119897;28;20038;-83
2022/06/06 10:00:03;;;;;;;7.80;3.08;;;35.50;51.60;;;;;;5131847;28;20061;-84
2022/06/06 10:03:46;;;;;;;3.55;2.50;;;35.50;51.60;;;;;;5131508;28;20658;-83
2022/06/06 10:07:20;;;;;;;15.10;3.72;;;35.50;50.90;;;;;;5132305;28;20046;-84
2022/06/06 10:10:38;;;;;;;12.32;3.03;;;35.60;51.00;;;;;;5132217;28;20054;-83
2022/06/06 10:14:38;;;;;;;13.57;3.30;;;35.50;49.00;;;;;;5132032;28;20054;-82
2022/06/06 10:18:12;;;;;;;16.90;3.60;;;35.40;49.40;;;;;;5088814;28;20039;-84
2022/06/06 10:21:36;;;;;;;11.32;3.83;;;35.40;53.30;;;;;;5101858;27;20038;-84
2022/06/06 10:24:55;;;;;;;17.83;3.65;;;35.30;52.70;;;;;;5132601;28;20046;-84
2022/06/06 10:28:22;;;;;;;17.17;4.10;;;35.30;52.70;;;;;;5131578;28;20050;-82
2022/06/06 10:31:32;;;;;;;18.48;4.28;;;35.30;54.10;;;;;;5123620;27;20058;-82
2022/06/06 10:34:59;;;;;;;14.07;3.75;;;35.30;54.20;;;;;;5132047;28;20046;-82
2022/06/06 10:38:23;;;;;;;16.90;3.47;;;35.20;54.80;;;;;;5130972;28;20493;-83
2022/06/06 10:41:52;;;;;;;15.40;3.88;;;35.10;54.30;;;;;;5131848;28;20069;-84
2022/06/06 10:45:00;;;;;;;9.23;4.05;;;35.00;55.30;;;;;;5130773;28;20394;-81
2022/06/06 10:48:38;;;;;;;13.38;4.28;;;35.00;55.70;;;;;;5129702;28;20047;-80
2022/06/06 10:51:43;;;;;;;22.67;5.80;;;34.90;55.50;;;;;;5129664;28;20042;-81
2022/06/06 10:55:15;;;;;;;18.10;4.78;;;34.90;55.40;;;;;;5132795;27;20042;-80
2022/06/06 10:58:57;;;;;;;18.65;5.20;;;34.80;54.60;;;;;;5134449;27;20054;-79
2022/06/06 11:02:14;;;;;;;16.55;3.85;;;34.70;55.00;;;;;;5135837;27;20042;-81
2022/06/06 11:05:36;;;;;;;23.55;4.60;;;34.60;55.90;;;;;;5133920;27;20046;-84
2022/06/06 11:08:40;;;;;;;14.80;3.80;;;34.50;56.80;;;;;;5133612;27;20050;-82
2022/06/06 11:12:06;;;;;;;18.70;5.22;;;34.40;56.60;;;;;;5135061;27;20049;-81
2022/06/06 11:15:11;;;;;;;15.95;4.68;;;34.30;56.30;;;;;;5134392;27;20386;-83
2022/06/06 11:18:37;;;;;;;15.88;3.70;;;34.30;56.00;;;;;;5134998;27;20042;-80
2022/06/06 11:22:12;;;;;;;15.02;4.07;;;34.20;56.50;;;;;;5134667;27;20058;-81
2022/06/06 11:25:21;;;;;;;22.60;4.10;;;34.20;57.90;;;;;;5135158;27;20417;-83
2022/06/06 11:28:53;;;;;;;14.70;4.28;;;34.10;58.10;;;;;;5134754;27;20050;-80
2022/06/06 11:32:09;;;;;;;18.23;3.60;;;34.00;58.80;;;;;;5134020;27;20038;-84
2022/06/06 11:35:25;;;;;;;9.70;3.50;;;34.10;58.70;;;;;;5133455;27;20046;-79
2022/06/06 11:39:03;;;;;;;15.75;3.78;;;34.00;59.70;;;;;;5134768;27;20038;-85
2022/06/06 11:42:19;;;;;;;11.40;3.22;;;34.00;59.50;;;;;;5134832;27;20042;-78
2022/06/06 11:45:42;;;;;;;11.55;4.55;;;34.00;59.90;;;;;;5134405;27;20042;-81
2022/06/06 11:49:04;;;;;;;15.30;3.72;;;33.90;60.20;;;;;;5134254;27;20051;-82
2022/06/06 11:52:08;;;;;;;12.07;3.58;;;34.00;60.10;;;;;;5133376;27;20042;-83
2022/06/06 11:55:21;;;;;;;14.20;4.20;;;33.90;60.20;;;;;;5131617;27;20053;-79
2022/06/06 11:58:46;;;;;;;19.38;3.78;;;33.90;60.00;;;;;;5130543;27;20054;-77
2022/06/06 12:02:11;;;;;;;20.40;4.00;;;33.90;60.60;;;;;;5131531;27;20073;-83
2022/06/06 12:05:19;;;;;;;11.00;3.30;;;33.90;60.80;;;;;;5131401;27;20046;-79
2022/06/06 12:08:59;;;;;;;14.90;3.53;;;33.90;60.80;;;;;;5131158;27;20058;-80
2022/06/06 12:12:41;;;;;;;17.77;7.07;;;33.90;59.70;;;;;;5134038;27;20038;-83
2022/06/06 12:16:15;;;;;;;10.02;3.40;;;33.90;58.40;;;;;;5133879;27;20272;-78
2022/06/06 12:19:28;;;;;;;9.90;3.00;;;33.80;58.30;;;;;;5133857;27;20057;-81
2022/06/06 12:22:41;;;;;;;12.60;3.80;;;33.80;57.50;;;;;;5133712;27;20046;-82
2022/06/06 12:26:11;;;;;;;15.90;4.20;;;33.70;56.30;;;;;;5133510;27;20038;-81
2022/06/06 12:29:42;;;;;;;14.77;3.70;;;33.70;57.10;;;;;;5133473;27;20050;-82
2022/06/06 12:33:03;;;;;;;16.40;3.58;;;33.60;57.30;;;;;;5132371;27;20046;-77
2022/06/06 12:36:32;;;;;;;17.23;3.50;;;33.60;57.10;;;;;;5132777;27;20050;-73
2022/06/06 12:39:44;;;;;;;15.20;4.30;;;33.60;58.00;;;;;;5133651;27;20046;-75
2022/06/06 12:43:07;;;;;;;12.35;3.28;;;33.60;58.70;;;;;;5133403;27;20049;-75
2022/06/06 12:46:23;;;;;;;14.60;3.22;;;33.50;57.50;;;;;;5133029;27;20065;-76
2022/06/06 12:50:03;;;;;;;11.55;3.47;;;33.40;57.50;;;;;;5133183;27;20050;-75
2022/06/06 12:53:28;;;;;;;12.93;3.53;;;33.40;56.90;;;;;;5133204;27;20034;-75
2022/06/06 12:56:38;;;;;;;14.02;3.40;;;33.40;56.20;;;;;;5120128;27;20508;-78
2022/06/06 13:00:02;;;;;;;15.07;4.40;;;33.40;56.00;;;;;;5132263;27;20461;-77
2022/06/06 13:03:19;;;;;;;15.23;3.80;;;33.40;57.60;;;;;;5132055;27;20038;-78
2022/06/06 13:07:09;;;;;;;15.65;4.55;;;33.30;58.10;;;;;;5133148;27;20046;-73
2022/06/06 13:10:45;;;;;;;11.82;3.67;;;33.30;57.90;;;;;;5079795;27;20127;-72
2022/06/06 13:14:13;;;;;;;18.77;5.13;;;33.30;58.60;;;;;;5131817;27;20042;-74
2022/06/06 13:17:29;;;;;;;12.02;3.25;;;33.30;59.40;;;;;;5132261;27;20038;-73
2022/06/06 13:20:56;;;;;;;13.77;3.90;;;33.30;59.70;;;;;;5132689;27;20034;-75
2022/06/06 13:24:28;;;;;;;12.73;3.90;;;33.20;61.30;;;;;;5131871;27;20046;-75
2022/06/06 13:27:51;;;;;;;15.75;3.95;;;33.30;61.90;;;;;;5131858;27;20066;-74
2022/06/06 13:31:21;;;;;;;11.40;3.72;;;33.40;61.80;;;;;;5131426;27;20046;-74
2022/06/06 13:34:28;;;;;;;;;;;33.40;61.80;;;;;;5132938;27;20038;-74
2022/06/06 13:37:44;;;;;;;11.15;3.25;;;33.40;61.50;;;;;;5132246;27;19929;-73
2022/06/06 13:41:28;;;;;;;10.77;3.58;;;33.40;61.50;;;;;;5131381;27;20398;-73
2022/06/06 13:45:01;;;;;;;12.52;4.20;;;33.40;61.80;;;;;;5131624;27;20050;-74
2022/06/06 13:48:40;;;;;;;16.52;4.32;;;33.40;61.80;;;;;;5131402;27;20066;-73
2022/06/06 13:52:02;;;;;;;9.38;3.13;;;33.40;61.30;;;;;;5131981;28;20042;-72
2022/06/06 13:55:38;;;;;;;18.17;3.97;;;33.30;60.20;;;;;;5132162;28;20523;-74
2022/06/06 13:59:08;;;;;;;18.88;3.75;;;33.20;58.70;;;;;;5134514;27;20058;-74
2022/06/06 14:02:31;;;;;;;13.52;4.80;;;33.20;57.80;;;;;;5132218;28;20062;-74
2022/06/06 14:05:47;;;;;;;11.68;3.78;;;33.20;58.00;;;;;;5131780;28;20047;-74
2022/06/06 14:08:55;;;;;;;16.00;4.28;;;33.10;57.70;;;;;;5131821;28;20062;-74
2022/06/06 14:12:19;;;;;;;14.80;3.42;;;33.10;58.10;;;;;;5130954;28;20038;-73
2022/06/06 14:15:25;;;;;;;12.82;4.03;;;33.20;58.30;;;;;;5131936;28;20046;-74
2022/06/06 14:18:33;;;;;;;14.20;3.88;;;33.20;58.80;;;;;;5130998;28;20637;-73
2022/06/06 14:21:46;;;;;;;17.58;3.75;;;33.10;58.50;;;;;;5131650;28;20038;-74
2022/06/06 14:24:55;;;;;;;27.17;4.68;;;33.10;57.60;;;;;;5119064;28;20505;-74
2022/06/06 14:28:36;;;;;;;16.13;3.70;;;33.10;57.90;;;;;;5131607;27;20485;-74
2022/06/06 14:31:48;;;;;;;;;;;33.00;57.80;;;;;;5095022;27;20135;-75
2022/06/06 14:34:58;;;;;;;19.70;6.20;;;33.00;58.10;;;;;;5135426;27;19914;-73
2022/06/06 14:38:28;;;;;;;11.90;3.70;;;33.00;58.50;;;;;;5135797;27;20050;-72
2022/06/06 14:41:46;;;;;;;13.18;3.15;;;33.00;57.90;;;;;;5134494;27;20046;-72
2022/06/06 14:45:05;;;;;;;17.90;4.30;;;32.90;58.20;;;;;;5134918;27;20046;-75
2022/06/06 14:48:16;;;;;;;16.95;4.80;;;32.90;57.30;;;;;;5135052;27;20046;-80
2022/06/06 14:51:31;;;;;;;14.18;4.43;;;33.00;57.30;;;;;;5134698;27;20058;-76
2022/06/06 14:54:39;;;;;;;15.35;3.47;;;33.00;57.60;;;;;;5134574;27;20458;-75
2022/06/06 14:57:43;;;;;;;13.40;3.97;;;33.00;56.20;;;;;;5122535;27;20058;-73
2022/06/06 15:00:56;;;;;;;13.20;2.95;;;33.00;55.30;;;;;;5135101;27;20038;-74
2022/06/06 15:04:21;;;;;;;12.95;3.65;;;33.00;56.40;;;;;;5134985;27;20054;-73
2022/06/06 15:07:40;;;;;;;14.15;3.50;;;33.00;56.60;;;;;;5134531;27;20050;-81
2022/06/06 15:10:48;;;;;;;11.73;3.60;;;33.00;57.30;;;;;;5135245;27;20046;-75
2022/06/06 15:13:56;;;;;;;15.75;3.75;;;33.00;57.80;;;;;;5135183;27;20061;-75
2022/06/06 15:17:04;;;;;;;21.23;3.95;;;33.00;57.80;;;;;;5122160;27;20379;-71
2022/06/06 15:20:28;;;;;;;18.20;3.78;;;33.00;57.40;;;;;;5134725;27;20038;-70
2022/06/06 15:23:42;;;;;;;16.85;4.40;;;33.00;57.20;;;;;;5134817;27;20050;-69
2022/06/06 15:26:52;;;;;;;13.38;3.65;;;33.00;57.20;;;;;;5134577;27;20097;-72
2022/06/06 15:30:02;;;;;;;10.95;3.40;;;33.00;56.60;;;;;;5134385;27;20054;-71
2022/06/06 15:33:22;;;;;;;17.60;4.35;;;33.00;57.10;;;;;;5134442;27;20047;-69
2022/06/06 15:36:31;;;;;;;11.70;3.28;;;32.90;57.30;;;;;;5134152;27;20042;-69
2022/06/06 15:40:11;;;;;;;19.35;4.43;;;32.90;57.50;;;;;;5133960;27;20030;-68
2022/06/06 15:43:27;;;;;;;23.67;3.73;;;32.90;57.10;;;;;;5122987;27;20042;-74
2022/06/06 15:47:02;;;;;;;16.63;3.78;;;32.80;57.30;;;;;;5133243;27;20038;-75
2022/06/06 15:50:32;;;;;;;17.40;4.15;;;32.80;57.80;;;;;;5134023;27;20062;-75
2022/06/06 15:54:09;;;;;;;14.88;3.90;;;32.70;57.10;;;;;;5135166;27;20502;-75
2022/06/06 15:57:31;;;;;;;18.55;4.18;;;32.60;57.70;;;;;;5135213;27;20050;-78
2022/06/06 16:00:45;;;;;;;22.42;4.55;;;32.50;56.40;;;;;;5134316;27;20042;-77
2022/06/06 16:04:00;;;;;;;15.45;3.47;;;32.30;59.30;;;;;;5134074;27;20060;-76
2022/06/06 16:07:21;;;;;;;21.55;4.47;;;32.20;61.20;;;;;;5134343;27;20046;-78
2022/06/06 16:10:37;;;;;;;24.25;5.72;;;32.20;63.70;;;;;;5134105;27;20062;-81
2022/06/06 16:14:16;;;;;;;17.50;4.95;;;32.10;65.10;;;;;;5121674;27;20050;-79
2022/06/06 16:17:23;;;;;;;21.98;3.92;;;32.10;64.50;;;;;;5134476;27;20049;-79
2022/06/06 16:20:32;;;;;;;14.60;3.80;;;32.00;65.40;;;;;;5133356;27;20042;-78
2022/06/06 16:23:44;;;;;;;20.67;4.68;;;32.00;66.10;;;;;;5134084;27;20502;-79
2022/06/06 16:26:55;;;;;;;15.38;4.43;;;32.00;66.90;;;;;;5132944;27;20401;-81
2022/06/06 16:30:22;;;;;;;29.70;4.55;;;31.90;67.70;;;;;;5133226;27;20054;-77
2022/06/06 16:33:32;;;;;;;24.85;3.90;;;31.80;67.80;;;;;;5132301;27;20061;-78
2022/06/06 16:37:04;;;;;;;24.52;4.28;;;31.70;69.40;;;;;;5131907;27;20583;-75
2022/06/06 16:40:51;;;;;;;22.83;4.38;;;31.70;69.80;;;;;;5133434;27;20041;-76
2022/06/06 16:51:00;;;;;;;23.88;5.32;;;31.30;70.70;;;;;;5132681;27;20513;-78
2022/06/06 16:54:32;;;;;;;23.73;4.90;;;31.10;72.80;;;;;;5133263;27;20038;-79
2022/06/06 16:57:41;;;;;;;21.73;5.32;;;31.00;72.90;;;;;;5132788;27;20603;-78
2022/06/06 17:00:52;;;;;;;24.00;5.97;;;31.00;73.40;;;;;;5133152;27;20058;-78
2022/06/06 17:04:09;;;;;;;28.63;6.03;;;30.90;74.60;;;;;;5133198;27;20034;-79
2022/06/06 17:07:48;;;;;;;26.45;6.10;;;30.80;75.80;;;;;;5132927;27;20046;-79
2022/06/06 17:11:17;;;;;;;36.05;6.75;;;30.80;75.70;;;;;;5133045;27;20054;-80
2022/06/06 17:14:30;;;;;;;42.50;8.27;;;30.70;76.00;;;;;;5132134;27;20457;-78
2022/06/06 17:17:45;;;;;;;34.58;7.90;;;30.70;76.90;;;;;;5132420;27;20054;-79
2022/06/06 17:20:58;;;;;;;36.40;8.00;;;30.60;77.10;;;;;;5132516;27;20046;-80
2022/06/06 17:24:32;;;;;;;75.60;8.82;;;30.50;77.60;;;;;;5131790;27;20046;-78
2022/06/06 17:27:54;;;;;;;31.20;6.88;;;30.50;75.20;;;;;;5132012;27;20481;-77
2022/06/06 17:31:17;;;;;;;56.15;8.85;;;30.40;74.60;;;;;;5132015;27;20061;-77